Time;durP1;ratioP1;P1;durP2;ratioP2;P2;SDS_P1;SDS_P2;PMS_P1;PMS_P2;Temp;Humidity;BMP_temperature;BMP_pressure;BME280_temperature;BME280_humidity;BME280_pressure;Samples;Min_cycle;Max_cycle;Signal;HPM_P1;HPM_P2
2022/06/21 00:04:43;;;;;;;7.38;4.55;;;;;;;11.58;76.98;101762.88;10522411;28;20032;-66
2022/06/21 00:09:43;;;;;;;10.65;5.07;;;;;;;11.58;76.89;101765.59;10540667;28;20032;-66
2022/06/21 00:14:44;;;;;;;14.45;5.70;;;;;;;11.56;77.11;101763.09;10539791;28;20039;-66
2022/06/21 00:19:44;;;;;;;16.52;5.45;;;;;;;11.50;77.17;101758.38;10539902;28;20056;-67
2022/06/21 00:24:45;;;;;;;7.45;5.60;;;;;;;11.40;76.70;101747.78;10541234;28;20053;-66
2022/06/21 00:29:45;;;;;;;21.70;6.22;;;;;;;11.37;77.02;101750.88;10522113;28;20043;-66
2022/06/21 00:34:46;;;;;;;9.90;6.82;;;;;;;11.32;77.56;101738.88;10522946;28;20024;-66
2022/06/21 00:39:46;;;;;;;6.97;5.38;;;;;;;11.25;77.35;101732.50;10505132;28;20020;-67
2022/06/21 00:45:01;;;;;;;5.97;5.22;;;;;;;11.29;78.20;101741.94;10522522;28;20032;-66
2022/06/21 00:50:16;;;;;;;7.93;4.90;;;;;;;11.24;78.42;101731.66;10522206;28;20028;-66
2022/06/21 00:55:39;;;;;;;14.32;6.70;;;;;;;11.23;78.80;101729.13;10525826;28;20028;-66
2022/06/21 01:00:43;;;;;;;10.32;6.47;;;;;;;11.19;78.21;101706.94;10515363;28;20044;-67
2022/06/21 01:05:45;;;;;;;13.32;7.07;;;;;;;11.15;78.85;101717.31;10512971;28;20492;-65
2022/06/21 01:10:47;;;;;;;7.72;6.05;;;;;;;11.07;78.54;101703.84;10547884;28;20036;-66
2022/06/21 01:15:49;;;;;;;10.95;5.22;;;;;;;11.07;79.00;101708.41;10547633;28;20115;-65
2022/06/21 01:20:51;;;;;;;11.70;5.45;;;;;;;11.05;79.10;101710.47;10513630;28;20055;-66
2022/06/21 01:26:05;;;;;;;9.18;6.13;;;;;;;11.01;79.59;101717.25;10512551;28;20036;-65
2022/06/21 01:31:05;;;;;;;17.08;8.00;;;;;;;10.96;79.48;101712.38;10529470;28;20454;-66
2022/06/21 01:36:08;;;;;;;15.75;6.22;;;;;;;10.90;79.52;101710.38;10529903;28;20023;-66
2022/06/21 01:41:11;;;;;;;12.20;6.28;;;;;;;10.84;79.93;101711.94;10545817;28;20032;-65
2022/06/21 01:46:14;;;;;;;10.63;6.78;;;;;;;10.80;79.53;101718.75;10511672;28;20128;-66
2022/06/21 01:51:17;;;;;;;10.05;7.47;;;;;;;10.75;79.32;101704.88;10528177;28;20488;-65
2022/06/21 01:56:21;;;;;;;9.82;6.43;;;;;;;10.72;79.54;101713.41;10511467;28;20470;-67
2022/06/21 02:01:26;;;;;;;8.77;6.88;;;;;;;10.64;80.35;101713.44;10527018;28;20028;-66
2022/06/21 02:06:29;;;;;;;10.60;7.63;;;;;;;10.73;81.23;101714.25;10527531;28;20504;-66
2022/06/21 02:11:35;;;;;;;13.15;6.53;;;;;;;10.79;81.45;101719.78;10510258;28;20036;-66
2022/06/21 02:16:35;;;;;;;10.27;7.65;;;;;;;10.74;81.35;101716.75;10494201;28;20431;-66
2022/06/21 02:21:38;;;;;;;16.75;9.48;;;;;;;10.73;82.29;101695.28;10545726;28;20055;-66
2022/06/21 02:26:38;;;;;;;22.73;8.82;;;;;;;10.74;82.94;101691.53;10526583;28;20073;-66
2022/06/21 02:31:39;;;;;;;9.02;6.25;;;;;;;10.71;81.54;101681.88;10509154;28;20358;-66
2022/06/21 02:36:56;;;;;;;19.98;8.02;;;;;;;10.66;83.81;101652.66;10493913;28;20028;-66
2022/06/21 02:42:07;;;;;;;9.93;8.75;;;;;;;10.65;83.06;101650.09;10510962;28;20446;-66
2022/06/21 02:47:16;;;;;;;27.33;8.35;;;;;;;10.63;85.05;101635.91;10526341;28;20142;-66
2022/06/21 02:52:21;;;;;;;14.90;8.10;;;;;;;10.62;87.79;101634.22;10525961;28;20384;-66
2022/06/21 02:57:35;;;;;;;18.67;8.40;;;;;;;10.56;87.66;101649.34;10525344;28;20032;-66
2022/06/21 03:02:36;;;;;;;14.02;7.43;;;;;;;10.52;86.58;101637.16;10525085;28;20028;-66
2022/06/21 03:07:38;;;;;;;11.85;7.82;;;;;;;10.45;85.57;101658.69;10542773;28;20036;-66
2022/06/21 03:12:39;;;;;;;15.77;7.88;;;;;;;10.42;85.82;101667.16;10508360;28;20036;-66
2022/06/21 03:17:47;;;;;;;13.57;6.13;;;;;;;10.40;84.87;101657.53;10542063;28;20043;-66
2022/06/21 03:22:49;;;;;;;8.57;7.32;;;;;;;10.27;84.68;101658.09;10526174;28;20534;-66
2022/06/21 03:27:57;;;;;;;16.30;7.03;;;;;;;10.24;84.07;101651.16;10508157;28;20027;-66
2022/06/21 03:32:58;;;;;;;11.85;7.22;;;;;;;10.24;84.71;101642.19;10542321;28;20047;-65
2022/06/21 03:37:58;;;;;;;10.57;7.45;;;;;;;10.22;84.23;101638.84;10524937;28;20469;-67
2022/06/21 03:42:59;;;;;;;9.63;7.57;;;;;;;10.34;85.71;101618.50;10541635;28;20028;-66
2022/06/21 03:48:30;;;;;;;14.75;8.18;;;;;;;10.40;85.36;101625.91;10507624;28;20492;-66
2022/06/21 03:54:00;;;;;;;9.88;7.35;;;;;;;10.36;91.49;101600.19;10553744;28;20115;-66
2022/06/21 03:59:00;;;;;;;12.25;8.75;;;;;;;10.45;87.89;101603.69;10541559;28;20050;-66
2022/06/21 04:04:06;;;;;;;11.98;8.15;;;;;;;10.51;87.36;101597.56;10551590;28;20036;-66
2022/06/21 04:09:23;;;;;;;16.50;8.88;;;;;;;10.55;87.65;101598.88;10523852;28;20024;-67
2022/06/21 04:14:39;;;;;;;12.13;7.47;;;;;;;10.63;88.17;101606.13;10527854;28;20027;-66
2022/06/21 04:19:52;;;;;;;21.65;9.00;;;;;;;10.70;93.62;101602.50;10529803;28;20493;-66
2022/06/21 04:25:04;;;;;;;10.00;8.85;;;;;;;10.91;89.78;101596.41;10507902;28;20042;-66
2022/06/21 04:30:11;;;;;;;10.93;8.70;;;;;;;11.06;90.81;101598.31;10540932;28;20028;-66
2022/06/21 04:35:19;;;;;;;;;;;;;;;11.23;89.03;101605.28;10506915;28;20096;-66
2022/06/21 04:40:19;;;;;;;17.35;8.73;;;;;;;12.31;92.36;101603.81;10504160;28;19912;-68
2022/06/21 04:45:37;;;;;;;19.50;11.63;;;;;;;13.52;93.55;101596.53;10520588;28;20059;-67
2022/06/21 04:50:50;;;;;;;15.73;8.88;;;;;;;14.33;92.80;101587.69;10521711;28;20122;-68
2022/06/21 04:56:02;;;;;;;15.20;9.18;;;;;;;14.87;91.54;101584.03;10505846;28;20032;-68
2022/06/21 05:01:29;;;;;;;14.82;8.05;;;;;;;15.24;93.84;101589.88;10538892;28;20103;-68
2022/06/21 05:06:25;;;;;;;16.98;8.43;;;;;;;15.59;92.39;101593.16;10523566;28;20370;-66
2022/06/21 05:11:25;;;;;;;9.05;6.68;;;;;;;15.85;92.90;101594.19;10520870;28;20028;-70
2022/06/21 05:16:34;;;;;;;9.15;6.93;;;;;;;16.03;91.30;101595.16;10520315;28;20024;-72
2022/06/21 05:21:48;;;;;;;9.63;6.45;;;;;;;16.32;91.03;101603.00;10520772;28;20059;-72
2022/06/21 05:27:00;;;;;;;15.68;6.88;;;;;;;16.43;89.70;101611.38;10487966;28;20036;-71
2022/06/21 05:32:01;;;;;;;9.98;6.65;;;;;;;16.99;87.76;101622.59;10521146;28;20092;-70
2022/06/21 05:37:13;;;;;;;6.70;5.97;;;;;;;17.42;87.23;101608.91;10538053;28;20044;-70
2022/06/21 05:42:14;;;;;;;14.13;5.75;;;;;;;17.98;86.38;101613.41;10493624;28;20032;-70
2022/06/21 05:47:25;;;;;;;18.50;4.93;;;;;;;18.44;85.37;101617.47;10530129;28;20028;-70
2022/06/21 05:52:29;;;;;;;14.80;5.43;;;;;;;18.80;83.89;101621.19;10527515;28;20034;-70
2022/06/21 05:57:39;;;;;;;10.45;4.75;;;;;;;19.18;81.02;101629.00;10510717;28;20487;-70
2022/06/21 06:02:44;;;;;;;14.20;4.57;;;;;;;19.45;80.08;101634.88;10512291;28;20103;-70
2022/06/21 06:07:47;;;;;;;11.43;5.10;;;;;;;19.81;79.55;101640.38;10510753;28;20023;-70
2022/06/21 06:12:55;;;;;;;5.43;4.25;;;;;;;19.88;77.28;101644.69;10526929;28;20085;-71
2022/06/21 06:18:44;;;;;;;7.40;3.55;;;;;;;20.15;75.66;101649.63;10510285;28;20110;-71
2022/06/21 06:24:11;;;;;;;7.20;4.10;;;;;;;20.48;72.53;101659.91;10317260;28;20476;-70
2022/06/21 06:29:23;;;;;;;8.43;3.50;;;;;;;20.61;70.12;101654.19;10519193;28;20182;-70
2022/06/21 06:34:26;;;;;;;7.82;3.63;;;;;;;20.58;69.35;101648.31;10527970;28;20031;-70
2022/06/21 06:39:31;;;;;;;7.95;3.55;;;;;;;20.66;67.25;101647.91;10510198;28;20028;-71
2022/06/21 06:44:36;;;;;;;3.50;3.15;;;;;;;21.10;64.37;101660.00;10544345;28;20388;-70
2022/06/21 06:49:46;;;;;;;6.15;4.07;;;;;;;21.19;63.54;101659.59;10508526;28;20032;-71
2022/06/21 06:54:56;;;;;;;5.07;3.72;;;;;;;21.60;63.16;101658.31;10507428;28;20034;-71
2022/06/21 06:59:57;;;;;;;7.03;3.83;;;;;;;22.12;63.37;101659.91;10524819;28;20388;-70
2022/06/21 07:05:09;;;;;;;5.75;3.72;;;;;;;22.40;57.62;101648.69;10542048;28;20040;-70
2022/06/21 07:10:13;;;;;;;9.85;4.32;;;;;;;22.31;58.65;101652.16;10524848;28;20024;-70
2022/06/21 07:15:13;;;;;;;5.95;3.20;;;;;;;22.14;57.03;101655.75;10508531;28;20322;-70
2022/06/21 07:20:26;;;;;;;4.57;2.63;;;;;;;22.20;56.51;101659.47;10523117;28;20048;-70
2022/06/21 07:25:53;;;;;;;7.15;3.45;;;;;;;22.67;56.47;101645.09;10540877;28;20454;-71
2022/06/21 07:30:54;;;;;;;4.47;2.83;;;;;;;23.58;54.89;101645.06;10523803;28;20365;-70
2022/06/21 07:36:08;;;;;;;5.82;3.22;;;;;;;23.61;52.23;101649.22;10541651;28;20031;-70
2022/06/21 07:41:18;;;;;;;4.28;3.35;;;;;;;24.17;53.55;101632.94;10524325;28;20028;-71
2022/06/21 07:46:27;;;;;;;4.57;3.92;;;;;;;25.45;54.56;101620.09;10526490;28;20028;-70
2022/06/21 07:51:34;;;;;;;4.03;3.47;;;;;;;25.29;50.32;101610.97;10545923;28;20094;-70
2022/06/21 07:56:38;;;;;;;9.18;5.47;;;;;;;25.09;48.90;101605.44;10509880;28;20044;-70
2022/06/21 08:07:26;;;;;;;9.13;3.10;;;;;;;24.55;46.11;101611.50;10541940;28;20552;-71
2022/06/21 08:12:26;;;;;;;5.22;2.60;;;;;;;24.63;50.23;101602.63;10507329;28;20127;-70
2022/06/21 08:17:35;;;;;;;6.45;3.17;;;;;;;25.48;47.82;101599.31;10523742;28;20072;-71
2022/06/21 08:22:50;;;;;;;3.13;2.92;;;;;;;25.66;46.72;101595.13;10540075;28;20077;-71
2022/06/21 08:27:56;;;;;;;7.30;3.53;;;;;;;25.62;43.21;101583.75;10504891;28;20429;-70
2022/06/21 08:33:07;;;;;;;9.43;3.13;;;;;;;25.65;47.32;101588.72;10523029;28;20377;-70
2022/06/21 08:38:20;;;;;;;3.47;2.58;;;;;;;26.09;45.59;101588.00;10539435;28;20377;-70
2022/06/21 08:43:39;;;;;;;11.65;3.47;;;;;;;26.17;46.69;101587.44;10507180;28;20031;-71
2022/06/21 08:48:51;;;;;;;2.47;2.28;;;;;;;26.47;44.67;101582.78;10539228;28;20055;-71
2022/06/21 08:54:14;;;;;;;5.63;2.53;;;;;;;25.69;41.37;101594.56;10520550;28;20097;-71
2022/06/21 08:59:27;;;;;;;7.45;2.78;;;;;;;24.93;45.31;101584.38;10507941;28;20032;-70
2022/06/21 09:05:15;;;;;;;5.28;2.22;;;;;;;25.78;44.45;101578.13;10524563;28;20039;-80
2022/06/21 09:10:47;;;;;;;7.47;3.13;;;;;;;27.55;41.98;101583.56;10393464;28;20033;-80
2022/06/21 09:15:54;;;;;;;8.80;4.65;;;;;;;27.97;37.91;101564.44;10512879;28;20577;-79
2022/06/21 09:21:13;;;;;;;4.10;2.90;;;;;;;26.66;41.04;101572.69;10531882;28;20058;-79
2022/06/21 09:26:19;;;;;;;5.68;2.35;;;;;;;24.59;46.70;101573.84;10559082;28;20032;-79
2022/06/21 09:31:48;;;;;;;5.63;2.55;;;;;;;23.76;45.50;101571.06;10513545;28;20422;-79
2022/06/21 09:37:17;;;;;;;4.72;2.58;;;;;;;25.43;44.91;101566.88;10546556;28;20027;-79
2022/06/21 09:42:20;;;;;;;5.43;2.05;;;;;;;27.05;44.55;101560.66;10531285;28;20377;-79
2022/06/21 09:47:27;;;;;;;2.28;2.05;;;;;;;27.12;42.09;101552.00;10527058;28;20043;-79
2022/06/21 09:52:56;;;;;;;11.30;3.22;;;;;;;25.39;44.17;101545.53;10528330;28;20028;-79
2022/06/21 09:58:29;;;;;;;3.38;2.30;;;;;;;25.05;47.42;101535.88;10527847;28;20028;-79
2022/06/21 10:03:45;;;;;;;6.22;2.65;;;;;;;24.93;47.66;101546.41;10530261;28;20036;-79
2022/06/21 10:08:54;;;;;;;2.20;2.00;;;;;;;24.88;45.76;101540.88;10546704;28;20036;-79
2022/06/21 10:13:57;;;;;;;2.10;1.98;;;;;;;25.01;44.70;101547.78;10547204;28;20117;-79
2022/06/21 10:19:03;;;;;;;2.15;1.95;;;;;;;26.08;45.10;101539.16;10545360;28;20074;-79
2022/06/21 10:24:25;;;;;;;1.60;1.50;;;;;;;26.80;40.94;101522.84;10552100;28;20032;-79
2022/06/21 10:29:44;;;;;;;2.33;1.67;;;;;;;26.62;42.00;101531.91;10530311;28;20036;-79
2022/06/21 10:34:56;;;;;;;4.07;1.67;;;;;;;26.45;41.00;101515.59;10545137;28;20431;-79
2022/06/21 10:40:29;;;;;;;2.13;1.70;;;;;;;27.92;41.61;101509.66;10546744;28;20024;-80
2022/06/21 10:45:51;;;;;;;2.53;2.33;;;;;;;28.66;39.90;101511.91;10496557;28;20458;-80
2022/06/21 10:50:57;;;;;;;2.00;1.90;;;;;;;28.86;38.77;101511.53;10544666;28;20027;-78
2022/06/21 11:01:38;;;;;;;2.08;1.90;;;;;;;27.15;39.86;101514.47;10527501;28;19908;-79
2022/06/21 11:06:45;;;;;;;1.80;1.70;;;;;;;26.84;41.92;101517.53;10523821;28;20055;-79
2022/06/21 11:17:40;;;;;;;2.22;2.00;;;;;;;28.55;39.97;101507.59;10541750;28;20040;-79
2022/06/21 11:23:10;;;;;;;2.33;2.10;;;;;;;29.18;39.20;101498.69;10524047;28;20044;-79
2022/06/21 11:28:22;;;;;;;7.68;1.63;;;;;;;28.62;39.78;101502.47;10536117;28;20040;-79
2022/06/21 11:33:39;;;;;;;4.57;2.05;;;;;;;27.95;39.27;101497.06;10542753;28;20103;-79
2022/06/21 11:39:01;;;;;;;5.00;2.50;;;;;;;28.61;38.88;101498.84;10524705;28;20040;-79
2022/06/21 11:44:40;;;;;;;5.38;3.90;;;;;;;28.63;39.33;101493.00;10541388;28;20035;-79
2022/06/21 11:50:04;;;;;;;2.72;2.53;;;;;;;28.48;38.33;101483.75;10519022;28;20044;-79
2022/06/21 11:55:17;;;;;;;3.20;2.35;;;;;;;26.75;36.62;101483.16;10541407;28;20040;-78
2022/06/21 12:00:40;;;;;;;2.65;2.45;;;;;;;26.28;37.57;101490.19;10524326;28;20028;-78
2022/06/21 12:05:45;;;;;;;2.72;2.38;;;;;;;26.35;38.65;101472.06;10522456;28;20032;-78
2022/06/21 12:11:00;;;;;;;5.68;3.03;;;;;;;26.63;39.94;101456.59;10541959;28;20031;-78
2022/06/21 12:16:16;;;;;;;3.80;3.08;;;;;;;27.02;37.43;101463.97;10506866;28;20110;-78
2022/06/21 12:21:19;;;;;;;7.15;3.80;;;;;;;26.02;41.41;101457.06;10540657;28;20064;-77
2022/06/21 12:26:24;;;;;;;6.10;3.80;;;;;;;25.78;41.05;101445.78;10509112;28;20040;-77
2022/06/21 12:31:27;;;;;;;3.58;3.30;;;;;;;25.00;41.30;101452.75;10547634;28;20028;-77
2022/06/21 12:36:37;;;;;;;4.43;2.60;;;;;;;24.36;42.25;101442.28;10504831;28;20035;-77
2022/06/21 12:41:47;;;;;;;8.32;4.70;;;;;;;24.53;43.29;101439.25;10522162;28;20469;-77
2022/06/21 12:47:07;;;;;;;7.60;2.97;;;;;;;25.55;39.97;101435.38;10521605;28;20035;-78
2022/06/21 12:52:28;;;;;;;7.55;3.22;;;;;;;25.16;41.17;101438.88;10530119;28;20036;-78
2022/06/21 12:57:59;;;;;;;14.43;2.55;;;;;;;25.12;40.54;101432.22;10523668;28;20032;-77
2022/06/21 13:03:35;;;;;;;2.50;2.38;;;;;;;25.43;39.22;101438.47;10551168;28;20032;-77
2022/06/21 13:08:54;;;;;;;2.58;2.03;;;;;;;25.34;38.97;101431.91;10520230;28;20055;-77
2022/06/21 13:14:12;;;;;;;14.13;3.60;;;;;;;25.26;39.60;101428.56;10549621;28;20036;-77
2022/06/21 13:19:23;;;;;;;5.07;2.33;;;;;;;25.16;38.50;101423.06;10546708;28;20052;-77
2022/06/21 13:24:44;;;;;;;5.78;2.60;;;;;;;25.13;39.10;101422.81;10546794;28;20389;-77
2022/06/21 13:29:45;;;;;;;3.95;3.20;;;;;;;25.23;40.13;101429.13;10554851;28;20035;-77
2022/06/21 13:34:50;;;;;;;3.35;2.65;;;;;;;25.00;37.74;101418.69;10547295;28;20037;-77
2022/06/21 13:39:55;;;;;;;3.10;2.33;;;;;;;25.34;39.42;101418.84;10528124;28;20032;-78
2022/06/21 13:45:02;;;;;;;14.95;3.72;;;;;;;24.75;38.48;101422.34;10527780;28;20123;-77
2022/06/21 13:50:17;;;;;;;;;;;;;;;24.98;39.46;101415.34;10529148;28;20135;-77
2022/06/21 13:55:33;;;;;;;5.20;3.33;;;;;;;24.98;40.28;101404.25;10528105;28;19908;-77
2022/06/21 14:00:47;;;;;;;5.28;3.90;;;;;;;25.51;40.35;101407.41;10496337;28;20020;-77
2022/06/21 14:06:01;;;;;;;4.90;3.08;;;;;;;26.11;37.72;101401.75;10527841;28;20362;-78
2022/06/21 14:11:05;;;;;;;3.78;3.47;;;;;;;26.21;38.13;101398.91;10510924;28;20436;-77
2022/06/21 14:16:22;;;;;;;4.32;4.03;;;;;;;26.61;38.99;101392.19;10527124;28;20107;-77
2022/06/21 14:21:44;;;;;;;4.38;3.47;;;;;;;26.15;38.62;101392.56;10545643;28;20048;-78
2022/06/21 14:27:16;;;;;;;5.90;3.60;;;;;;;26.24;39.13;101389.16;10544942;28;20465;-78
2022/06/21 14:32:17;;;;;;;5.22;3.47;;;;;;;27.03;40.22;101384.22;10546099;28;20538;-78
2022/06/21 14:37:23;;;;;;;4.70;4.28;;;;;;;26.40;38.54;101394.28;10526404;28;20441;-78
2022/06/21 14:42:26;;;;;;;3.63;3.35;;;;;;;25.89;39.61;101388.34;10543557;28;20024;-77
2022/06/21 14:47:47;;;;;;;2.92;2.70;;;;;;;26.48;40.70;101383.66;10545416;28;20119;-78
2022/06/21 14:53:23;;;;;;;12.95;2.72;;;;;;;25.89;39.13;101377.22;10528746;28;20039;-77
2022/06/21 14:58:39;;;;;;;6.22;2.40;;;;;;;25.65;41.73;101371.53;10548998;28;20042;-77
2022/06/21 15:03:47;;;;;;;2.73;2.53;;;;;;;25.78;41.17;101364.50;10555576;28;20034;-77
2022/06/21 15:09:16;;;;;;;3.75;3.45;;;;;;;25.99;41.22;101366.03;10526874;28;20079;-78
2022/06/21 15:14:20;;;;;;;3.15;2.08;;;;;;;26.23;41.47;101356.94;10523893;28;20024;-77
2022/06/21 15:24:44;;;;;;;4.75;3.17;;;;;;;26.35;42.72;101351.84;10513587;28;20028;-77
2022/06/21 15:29:53;;;;;;;4.30;3.00;;;;;;;25.59;44.38;101350.50;10509300;28;20050;-77
2022/06/21 15:34:56;;;;;;;5.47;3.35;;;;;;;25.00;45.70;101346.63;10494978;28;20115;-77
2022/06/21 15:40:06;;;;;;;8.10;3.47;;;;;;;24.91;46.34;101343.59;10509264;28;20032;-77
2022/06/21 15:45:12;;;;;;;11.02;4.22;;;;;;;24.33;47.16;101341.25;10524309;28;20059;-78
2022/06/21 15:50:45;;;;;;;6.93;3.42;;;;;;;24.09;47.34;101349.31;10491281;28;20040;-77
2022/06/21 15:55:54;;;;;;;5.75;3.47;;;;;;;23.72;47.98;101346.78;10542890;28;20025;-77
2022/06/21 16:01:00;;;;;;;9.35;4.65;;;;;;;23.41;48.52;101341.16;10540976;28;20376;-77
2022/06/21 16:06:11;;;;;;;8.38;4.50;;;;;;;23.13;49.18;101336.97;10523566;28;20092;-77
2022/06/21 16:11:15;;;;;;;8.10;3.13;;;;;;;22.76;49.44;101337.06;10505887;28;20450;-77
2022/06/21 16:16:15;;;;;;;7.65;2.85;;;;;;;22.48;49.74;101344.63;10522680;28;20040;-76
2022/06/21 16:21:31;;;;;;;4.50;3.63;;;;;;;22.36;50.55;101349.50;10504917;28;20481;-77
2022/06/21 16:26:43;;;;;;;11.17;3.50;;;;;;;22.25;50.53;101351.34;10540892;28;20032;-77
2022/06/21 16:37:20;;;;;;;4.47;3.65;;;;;;;21.99;52.11;101349.47;10540076;28;20110;-76
2022/06/21 16:48:01;;;;;;;7.50;4.05;;;;;;;21.69;51.33;101347.25;10525791;28;20032;-76
2022/06/21 16:53:24;;;;;;;8.18;4.47;;;;;;;21.68;51.17;101345.59;10540118;28;20463;-77
2022/06/21 16:59:09;;;;;;;6.95;4.00;;;;;;;21.54;52.32;101334.19;10542003;28;20115;-76
2022/06/21 17:04:26;;;;;;;6.07;4.57;;;;;;;21.32;55.57;101323.16;10335962;28;20073;-76
2022/06/21 17:09:32;;;;;;;5.30;4.45;;;;;;;21.23;54.38;101320.03;10499008;28;20119;-76
2022/06/21 17:14:50;;;;;;;5.10;4.47;;;;;;;20.95;55.12;101326.59;10522750;28;20115;-77
2022/06/21 17:20:18;;;;;;;12.95;4.13;;;;;;;20.67;57.04;101328.41;10539150;28;20480;-76
2022/06/21 17:25:20;;;;;;;6.68;4.68;;;;;;;20.48;56.60;101321.50;10538756;28;20048;-76
2022/06/21 17:30:28;;;;;;;10.77;4.40;;;;;;;20.29;58.18;101317.38;10520914;28;20470;-76
2022/06/21 17:35:45;;;;;;;8.98;4.45;;;;;;;20.10;62.03;101306.69;10523787;28;20031;-76
2022/06/21 17:41:33;;;;;;;8.48;4.85;;;;;;;20.08;59.50;101314.34;10546703;28;20043;-76
2022/06/21 17:46:41;;;;;;;9.05;3.97;;;;;;;19.99;63.10;101326.81;10417204;28;20069;-76
2022/06/21 17:51:48;;;;;;;10.68;4.53;;;;;;;19.98;59.79;101317.75;10495005;28;20079;-76
2022/06/21 17:56:52;;;;;;;6.63;4.40;;;;;;;19.97;61.50;101324.34;10513896;28;20389;-76
2022/06/21 18:02:15;;;;;;;9.10;4.43;;;;;;;19.88;61.88;101325.00;10512603;28;20042;-75
2022/06/21 18:07:37;;;;;;;8.57;4.03;;;;;;;19.76;62.92;101338.81;10546052;28;20028;-76
2022/06/21 18:13:04;;;;;;;12.57;4.72;;;;;;;19.68;61.16;101336.47;10544330;28;20028;-76
2022/06/21 18:18:24;;;;;;;14.57;5.73;;;;;;;19.51;66.49;101333.66;10496859;28;20111;-76
2022/06/21 18:23:34;;;;;;;8.57;5.22;;;;;;;19.41;64.18;101322.50;10526152;28;20048;-76
2022/06/21 18:29:02;;;;;;;8.52;5.47;;;;;;;19.37;63.06;101335.03;10510526;28;20032;-76
2022/06/21 18:34:02;;;;;;;8.98;4.60;;;;;;;19.20;63.48;101334.97;10545334;28;20110;-76
2022/06/21 18:39:27;;;;;;;7.45;4.50;;;;;;;19.09;62.44;101331.22;10525321;28;20024;-68
2022/06/21 18:44:48;;;;;;;9.55;4.45;;;;;;;18.92;63.58;101349.50;10544870;28;20036;-69
2022/06/21 18:49:52;;;;;;;15.45;5.70;;;;;;;18.65;68.80;101358.22;10509143;28;20032;-68
2022/06/21 18:55:20;;;;;;;4.63;4.18;;;;;;;18.42;71.07;101370.03;10544269;28;20119;-68
2022/06/21 19:00:40;;;;;;;7.57;4.63;;;;;;;18.24;65.78;101386.59;10543125;28;20032;-68
2022/06/21 19:11:14;;;;;;;8.48;4.35;;;;;;;17.76;67.02;101385.63;10542093;28;20035;-68
2022/06/21 19:16:42;;;;;;;14.23;4.97;;;;;;;17.59;67.92;101390.09;10542383;28;20028;-67
2022/06/21 19:22:08;;;;;;;6.80;4.40;;;;;;;17.46;68.79;101387.56;10523858;28;20075;-68
2022/06/21 19:27:53;;;;;;;16.42;5.65;;;;;;;17.36;68.09;101385.38;10542455;28;20039;-67
2022/06/21 19:33:28;;;;;;;8.65;4.93;;;;;;;17.18;71.30;101394.41;10518780;28;20529;-68
2022/06/21 19:38:53;;;;;;;9.75;5.05;;;;;;;17.05;70.11;101403.63;10509103;28;20074;-68
2022/06/21 19:44:15;;;;;;;17.17;6.85;;;;;;;16.87;70.14;101406.34;10541280;28;20035;-67
2022/06/21 19:49:28;;;;;;;7.88;4.93;;;;;;;16.72;69.03;101410.28;10540966;28;20453;-67
2022/06/21 19:54:38;;;;;;;22.13;6.45;;;;;;;16.53;71.21;101414.03;10523734;28;20032;-67
2022/06/21 19:59:38;;;;;;;8.38;5.05;;;;;;;16.41;69.92;101407.63;10540622;28;20028;-67
2022/06/21 20:04:59;;;;;;;11.00;5.43;;;;;;;16.30;70.14;101414.63;10522355;28;20031;-67
2022/06/21 20:10:00;;;;;;;10.65;5.60;;;;;;;16.19;69.54;101401.72;10540460;28;20123;-71
2022/06/21 20:15:15;;;;;;;8.15;6.57;;;;;;;16.06;71.22;101401.81;10540305;28;20035;-73
2022/06/21 20:20:54;;;;;;;12.05;6.18;;;;;;;15.97;70.88;101399.34;10539633;28;20067;-75
2022/06/21 20:26:26;;;;;;;6.78;6.07;;;;;;;15.86;71.31;101408.25;10525251;28;20035;-75
2022/06/21 20:31:34;;;;;;;7.43;6.30;;;;;;;15.80;72.25;101395.47;10495259;28;20027;-74
2022/06/21 20:36:38;;;;;;;8.63;6.40;;;;;;;15.75;72.92;101404.31;10523873;28;20040;-73
2022/06/21 20:41:41;;;;;;;14.82;6.75;;;;;;;15.73;72.80;101402.84;10522377;28;20039;-74
2022/06/21 20:47:06;;;;;;;9.38;5.72;;;;;;;15.69;73.43;101407.09;10539814;28;20114;-72
2022/06/21 20:52:31;;;;;;;9.05;6.75;;;;;;;15.70;73.58;101415.06;10539102;28;20032;-71
2022/06/21 20:57:51;;;;;;;8.75;6.93;;;;;;;15.66;73.70;101402.03;10519673;28;20032;-71
2022/06/21 21:02:56;;;;;;;13.30;7.00;;;;;;;15.69;73.67;101409.81;10523281;28;20038;-71
2022/06/21 21:08:02;;;;;;;12.30;7.00;;;;;;;15.67;73.08;101409.22;10505294;28;20032;-71
2022/06/21 21:13:10;;;;;;;11.30;5.73;;;;;;;15.63;73.19;101405.19;10527470;28;20056;-76
2022/06/21 21:18:16;;;;;;;14.38;7.18;;;;;;;15.55;73.65;101407.13;10548482;28;20058;-76
2022/06/21 21:23:20;;;;;;;10.30;7.60;;;;;;;15.47;74.92;101404.63;10529447;28;20508;-76
2022/06/21 21:28:25;;;;;;;11.15;7.07;;;;;;;15.40;73.22;101405.75;10530525;28;20023;-76
2022/06/21 21:33:27;;;;;;;10.77;6.28;;;;;;;15.30;73.11;101396.13;10553501;28;20061;-75
2022/06/21 21:38:58;;;;;;;13.40;7.72;;;;;;;15.23;73.74;101398.06;10514497;28;20024;-76
2022/06/21 21:43:59;;;;;;;8.88;6.68;;;;;;;15.11;73.01;101392.41;10549101;28;20032;-76
2022/06/21 21:49:01;;;;;;;14.27;7.97;;;;;;;15.02;73.15;101387.41;10547423;28;20032;-75
2022/06/21 21:54:04;;;;;;;15.45;7.57;;;;;;;14.92;73.18;101398.78;10529032;28;20032;-76
2022/06/21 21:59:10;;;;;;;11.55;7.60;;;;;;;14.82;73.19;101396.50;10527990;28;20043;-75
2022/06/21 22:04:19;;;;;;;11.77;8.67;;;;;;;14.75;73.55;101392.13;10529060;28;20031;-75
2022/06/21 22:09:41;;;;;;;8.43;7.50;;;;;;;14.63;73.57;101386.47;10545566;28;20032;-75
2022/06/21 22:14:47;;;;;;;13.82;8.57;;;;;;;14.56;74.20;101391.09;10545360;28;20050;-75
2022/06/21 22:19:57;;;;;;;9.53;7.63;;;;;;;14.51;73.70;101399.06;10545392;28;20055;-75
2022/06/21 22:24:58;;;;;;;14.00;9.65;;;;;;;14.44;74.37;101393.59;10544515;28;20355;-75
2022/06/21 22:29:58;;;;;;;16.88;9.20;;;;;;;14.43;74.58;101394.66;10544835;28;20024;-76
2022/06/21 22:34:59;;;;;;;27.98;9.75;;;;;;;14.39;74.58;101396.13;10535036;28;20088;-75
2022/06/21 22:40:21;;;;;;;17.65;10.32;;;;;;;14.32;76.45;101401.56;10517194;28;20465;-75
2022/06/21 22:45:31;;;;;;;17.95;9.23;;;;;;;14.29;77.09;101393.81;10509638;28;20545;-75
2022/06/21 22:50:33;;;;;;;17.58;9.27;;;;;;;14.21;75.92;101396.75;10509694;28;20155;-75
2022/06/21 22:55:36;;;;;;;16.00;10.90;;;;;;;14.19;78.52;101396.94;10495247;28;20028;-75
2022/06/21 23:00:40;;;;;;;11.73;10.63;;;;;;;14.13;79.75;101396.94;10525709;28;20489;-75
2022/06/21 23:05:57;;;;;;;25.60;13.27;;;;;;;14.01;78.25;101404.91;10528033;28;20024;-76
2022/06/21 23:11:00;;;;;;;18.08;12.55;;;;;;;13.98;77.72;101410.78;10542644;28;20107;-75
2022/06/21 23:16:02;;;;;;;15.75;10.52;;;;;;;13.91;77.49;101404.47;10525108;28;20040;-75
2022/06/21 23:21:27;;;;;;;14.23;10.88;;;;;;;13.83;77.70;101416.41;10543231;28;20052;-76
2022/06/21 23:26:29;;;;;;;27.58;13.82;;;;;;;13.75;77.21;101416.56;10478017;28;20052;-75
2022/06/21 23:31:29;;;;;;;14.45;11.60;;;;;;;13.71;76.91;101429.75;10524270;28;20073;-75
2022/06/21 23:36:29;;;;;;;13.55;10.20;;;;;;;13.65;77.14;101427.84;10545100;28;20040;-76
2022/06/21 23:41:30;;;;;;;12.05;10.85;;;;;;;13.56;77.67;101423.69;10542861;28;20063;-75
2022/06/21 23:46:41;;;;;;;13.05;11.75;;;;;;;13.47;76.99;101403.13;10523763;28;20032;-75
2022/06/21 23:51:41;;;;;;;14.85;12.10;;;;;;;13.45;77.47;101407.91;10540982;28;20031;-76
2022/06/21 23:56:43;;;;;;;19.45;12.52;;;;;;;13.44;77.33;101417.97;10523468;28;20032;-75
